createdAt,value
2023-04-24T00:01:09.919Z,1.63
2023-04-24T00:03:13.836Z,1.60
2023-04-24T00:05:16.829Z,2.00
2023-04-24T00:07:21.114Z,6.43
2023-04-24T00:09:23.886Z,5.73
2023-04-24T00:11:26.706Z,3.00
2023-04-24T00:13:30.387Z,1.97
2023-04-24T00:15:33.199Z,1.60
2023-04-24T00:17:36.028Z,3.50
2023-04-24T00:19:38.823Z,6.93
2023-04-24T00:21:42.051Z,2.20
2023-04-24T00:23:46.170Z,2.10
2023-04-24T00:25:48.937Z,1.80
2023-04-24T00:27:51.790Z,1.80
2023-04-24T00:29:54.547Z,1.60
2023-04-24T00:31:57.442Z,2.03
2023-04-24T00:34:00.253Z,6.13
2023-04-24T00:36:03.013Z,1.80
2023-04-24T00:38:06.237Z,1.87
2023-04-24T00:40:11.450Z,2.00
2023-04-24T00:42:14.285Z,1.90
2023-04-24T00:44:17.090Z,2.10
2023-04-24T00:46:19.894Z,2.03
2023-04-24T00:48:22.793Z,3.43
2023-04-24T00:50:26.149Z,1.87
2023-04-24T00:52:29.451Z,3.23
2023-04-24T00:54:32.279Z,1.70
2023-04-24T00:56:36.862Z,2.43
2023-04-24T00:58:39.670Z,2.13
2023-04-24T01:00:42.429Z,2.00
2023-04-24T01:02:46.275Z,2.90
2023-04-24T01:04:49.304Z,5.13
2023-04-24T01:06:53.467Z,2.00
2023-04-24T01:08:56.576Z,2.37
2023-04-24T01:10:59.598Z,8.57
2023-04-24T01:13:03.729Z,4.03
2023-04-24T01:15:07.405Z,2.10
2023-04-24T01:17:10.237Z,3.80
2023-04-24T01:19:13.462Z,2.43
2023-04-24T01:21:17.420Z,2.93
2023-04-24T01:23:21.584Z,6.77
2023-04-24T01:25:24.531Z,8.80
2023-04-24T01:27:27.304Z,2.10
2023-04-24T01:29:30.075Z,3.67
2023-04-24T01:31:33.038Z,1.63
2023-04-24T01:33:35.959Z,2.07
2023-04-24T01:35:38.813Z,2.17
2023-04-24T01:37:41.620Z,3.47
2023-04-24T01:39:45.818Z,3.80
2023-04-24T01:41:48.650Z,2.97
2023-04-24T01:43:51.614Z,3.40
2023-04-24T01:45:54.402Z,3.70
2023-04-24T01:47:57.211Z,5.53
2023-04-24T01:50:00.041Z,3.47
2023-04-24T01:52:02.893Z,3.10
2023-04-24T01:54:06.320Z,5.17
2023-04-24T01:56:10.444Z,2.13
2023-04-24T01:58:13.224Z,3.30
2023-04-24T02:00:16.199Z,3.07
2023-04-24T02:02:19.103Z,2.40
2023-04-24T02:04:22.050Z,3.20
2023-04-24T02:06:24.866Z,3.10
2023-04-24T02:08:27.659Z,2.30
2023-04-24T02:10:30.483Z,1.63
2023-04-24T02:12:34.578Z,3.43
2023-04-24T02:14:37.373Z,1.67
2023-04-24T02:16:40.626Z,2.07
2023-04-24T02:18:43.482Z,1.80
2023-04-24T02:20:46.250Z,2.40
2023-04-24T02:22:49.023Z,3.70
2023-04-24T02:24:51.811Z,2.13
2023-04-24T02:26:54.566Z,2.23
2023-04-24T02:28:58.700Z,2.37
2023-04-24T02:31:02.115Z,1.80
2023-04-24T02:33:05.517Z,1.67
2023-04-24T02:35:09.022Z,3.03
2023-04-24T02:37:11.842Z,2.67
2023-04-24T02:39:17.373Z,2.80
2023-04-24T02:41:20.610Z,2.50
2023-04-24T02:43:23.515Z,1.43
2023-04-24T02:45:27.633Z,1.50
2023-04-24T02:47:30.430Z,1.90
2023-04-24T02:49:33.647Z,1.50
2023-04-24T02:51:39.090Z,1.73
2023-04-24T02:53:41.871Z,5.53
2023-04-24T02:55:44.637Z,1.30
2023-04-24T02:57:47.414Z,1.70
2023-04-24T02:59:50.296Z,2.13
2023-04-24T03:01:54.406Z,1.97
2023-04-24T03:03:57.374Z,1.77
2023-04-24T03:06:00.562Z,8.20
2023-04-24T03:08:03.409Z,1.47
2023-04-24T03:10:07.316Z,2.40
2023-04-24T03:12:10.088Z,1.90
2023-04-24T03:14:12.848Z,2.30
2023-04-24T03:16:15.716Z,5.83
2023-04-24T03:18:19.953Z,1.80
2023-04-24T03:20:23.146Z,3.10
2023-04-24T03:22:25.918Z,1.77
2023-04-24T03:24:29.372Z,2.30
2023-04-24T03:26:32.147Z,2.90
2023-04-24T03:28:34.918Z,2.80
2023-04-24T03:30:37.689Z,3.20
2023-04-24T03:32:41.150Z,4.40
2023-04-24T03:34:45.693Z,3.00
2023-04-24T03:36:49.428Z,2.80
2023-04-24T03:38:52.194Z,1.70
2023-04-24T03:40:54.957Z,1.67
2023-04-24T03:42:57.780Z,1.90
2023-04-24T03:45:00.559Z,1.73
2023-04-24T03:47:03.322Z,3.20
2023-04-24T03:49:06.094Z,1.77
2023-04-24T03:51:10.185Z,1.93
2023-04-24T03:53:12.950Z,4.27
2023-04-24T03:55:15.722Z,1.47
2023-04-24T03:57:18.519Z,2.83
2023-04-24T03:59:21.332Z,2.40
2023-04-24T04:01:25.113Z,2.03
2023-04-24T04:03:28.040Z,1.87
2023-04-24T04:05:31.148Z,2.13
2023-04-24T04:07:35.350Z,1.67
2023-04-24T04:09:38.111Z,2.10
2023-04-24T04:11:40.899Z,2.57
2023-04-24T04:13:43.670Z,2.60
2023-04-24T04:15:46.499Z,2.60
2023-04-24T04:17:49.336Z,4.87
2023-04-24T04:19:52.124Z,2.10
2023-04-24T04:21:57.169Z,2.80
2023-04-24T04:24:01.338Z,2.37
2023-04-24T04:26:04.289Z,7.97
2023-04-24T04:28:07.301Z,4.20
2023-04-24T04:30:10.852Z,3.20
2023-04-24T04:32:13.803Z,7.30
2023-04-24T04:34:16.614Z,2.10
2023-04-24T04:36:19.614Z,6.23
2023-04-24T04:38:22.434Z,2.30
2023-04-24T04:40:27.786Z,3.60
2023-04-24T04:42:31.621Z,2.60
2023-04-24T04:44:36.756Z,3.43
2023-04-24T04:46:39.554Z,3.00
2023-04-24T04:48:42.332Z,2.97
2023-04-24T04:50:45.111Z,5.80
2023-04-24T04:52:47.942Z,3.13
2023-04-24T04:54:50.711Z,2.70
2023-04-24T04:56:55.022Z,2.57
2023-04-24T04:58:57.806Z,3.10
2023-04-24T05:01:00.624Z,1.83
2023-04-24T05:03:19.263Z,3.53
2023-04-24T05:05:23.741Z,3.10
2023-04-24T05:07:26.614Z,2.43
2023-04-24T05:09:30.355Z,1.67
2023-04-24T05:11:33.106Z,3.13
2023-04-24T05:13:40.657Z,2.30
2023-04-24T05:15:43.961Z,1.93
2023-04-24T05:17:46.772Z,4.20
2023-04-24T05:19:49.564Z,2.90
2023-04-24T05:21:52.325Z,1.97
2023-04-24T05:23:55.132Z,1.60
2023-04-24T05:25:58.350Z,1.70
2023-04-24T05:28:01.153Z,2.33
2023-04-24T05:30:06.249Z,5.77
2023-04-24T05:32:09.017Z,2.00
2023-04-24T05:34:11.824Z,1.80
2023-04-24T05:36:14.770Z,3.10
2023-04-24T05:38:18.935Z,2.03
2023-04-24T05:40:21.905Z,2.80
2023-04-24T05:42:24.678Z,1.80
2023-04-24T05:44:27.424Z,7.40
2023-04-24T05:46:32.511Z,2.03
2023-04-24T05:48:35.577Z,1.80
2023-04-24T05:50:38.338Z,2.90
2023-04-24T05:52:41.145Z,4.10
2023-04-24T05:54:43.901Z,2.80
2023-04-24T05:56:47.442Z,3.10
2023-04-24T05:58:50.230Z,2.10
2023-04-24T06:00:52.985Z,2.30
2023-04-24T06:02:57.257Z,2.33
2023-04-24T06:05:01.097Z,2.60
2023-04-24T06:07:03.993Z,2.43
2023-04-24T06:09:06.823Z,2.50
2023-04-24T06:11:09.594Z,2.60
2023-04-24T06:13:12.373Z,5.20
2023-04-24T06:15:15.159Z,3.47
2023-04-24T06:17:17.998Z,3.40
2023-04-24T06:19:22.478Z,4.73
2023-04-24T06:21:25.241Z,4.37
2023-04-24T06:23:28.029Z,4.33
2023-04-24T06:25:31.538Z,3.77
2023-04-24T06:27:34.342Z,5.80
2023-04-24T06:29:38.080Z,4.30
2023-04-24T06:31:41.164Z,6.50
2023-04-24T06:33:44.208Z,4.17
2023-04-24T06:35:48.290Z,5.47
2023-04-24T06:37:51.218Z,7.33
2023-04-24T06:39:53.987Z,6.20
2023-04-24T06:41:56.948Z,7.90
2023-04-24T06:43:59.730Z,7.70
2023-04-24T06:46:04.465Z,7.70
2023-04-24T06:48:07.393Z,7.77
2023-04-24T06:50:11.002Z,7.43
2023-04-24T06:52:15.089Z,11.13
2023-04-24T06:54:17.866Z,8.03
2023-04-24T06:56:21.102Z,8.27
2023-04-24T06:58:23.882Z,12.10
2023-04-24T07:00:26.776Z,7.27
2023-04-24T07:02:29.654Z,11.20
2023-04-24T07:04:32.916Z,8.40
2023-04-24T07:06:36.831Z,8.90
2023-04-24T07:08:42.828Z,9.57
2023-04-24T07:10:45.978Z,9.37
2023-04-24T07:12:48.793Z,12.63
2023-04-24T07:14:52.544Z,8.33
2023-04-24T07:16:55.455Z,9.13
2023-04-24T07:18:58.245Z,11.53
2023-04-24T07:21:01.692Z,9.57
2023-04-24T07:23:04.574Z,11.47
2023-04-24T07:25:09.634Z,9.73
2023-04-24T07:27:12.530Z,11.20
2023-04-24T07:29:15.364Z,10.70
2023-04-24T07:31:18.164Z,11.07
2023-04-24T07:33:21.131Z,11.80
2023-04-24T07:35:23.903Z,12.97
2023-04-24T07:37:26.712Z,11.70
2023-04-24T07:39:30.241Z,11.73
2023-04-24T07:41:34.409Z,12.70
2023-04-24T07:43:37.221Z,15.33
2023-04-24T07:45:40.619Z,9.43
2023-04-24T07:47:44.853Z,10.43
2023-04-24T07:49:47.698Z,9.90
2023-04-24T07:51:51.299Z,14.60
2023-04-24T07:53:54.074Z,13.70
2023-04-24T07:55:57.031Z,13.23
2023-04-24T07:58:01.102Z,12.17
2023-04-24T08:00:05.538Z,12.27
2023-04-24T08:02:08.578Z,10.50
2023-04-24T08:04:11.586Z,10.37
2023-04-24T08:06:14.608Z,17.60
2023-04-24T08:08:17.377Z,13.97
2023-04-24T08:10:20.184Z,14.60
2023-04-24T08:12:22.962Z,14.13
2023-04-24T08:14:27.099Z,15.60
2023-04-24T08:16:29.919Z,22.40
2023-04-24T08:18:32.781Z,23.37
2023-04-24T08:20:35.601Z,18.40
2023-04-24T08:22:38.370Z,18.70
2023-04-24T08:24:41.199Z,19.60
2023-04-24T08:26:43.955Z,19.20
2023-04-24T08:28:47.001Z,16.53
2023-04-24T08:30:55.342Z,20.73
2023-04-24T08:32:58.377Z,18.20
2023-04-24T08:35:01.391Z,17.70
2023-04-24T08:37:04.614Z,12.70
2023-04-24T08:39:07.711Z,11.33
2023-04-24T08:41:10.637Z,19.90
2023-04-24T08:43:14.065Z,17.77
2023-04-24T08:45:16.866Z,16.90
2023-04-24T08:47:21.212Z,17.47
2023-04-24T08:49:24.078Z,14.57
2023-04-24T08:51:26.829Z,14.43
2023-04-24T08:53:29.799Z,12.07
2023-04-24T08:55:32.672Z,14.40
2023-04-24T08:57:36.962Z,15.77
2023-04-24T08:59:39.738Z,12.37
2023-04-24T09:01:42.611Z,12.03
2023-04-24T09:03:46.918Z,14.20
2023-04-24T09:05:51.330Z,10.20
2023-04-24T09:07:55.969Z,15.67
2023-04-24T09:09:59.025Z,9.27
2023-04-24T09:12:01.879Z,9.43
2023-04-24T09:14:04.666Z,10.40
2023-04-24T09:16:07.533Z,10.90
2023-04-24T09:18:10.357Z,9.53
2023-04-24T09:20:14.488Z,10.10
2023-04-24T09:22:17.259Z,11.60
2023-04-24T09:24:23.431Z,10.87
2023-04-24T09:26:26.203Z,10.73
2023-04-24T09:28:32.940Z,7.37
2023-04-24T09:30:35.703Z,14.80
2023-04-24T09:32:38.556Z,11.17
2023-04-24T09:34:41.352Z,7.93
2023-04-24T09:36:45.455Z,8.87
2023-04-24T09:38:48.409Z,9.63
2023-04-24T09:40:51.163Z,8.80
2023-04-24T09:42:54.684Z,13.43
2023-04-24T09:45:04.665Z,6.20
2023-04-24T09:47:15.052Z,7.10
2023-04-24T09:49:18.438Z,10.03
2023-04-24T09:51:21.197Z,8.63
2023-04-24T09:53:27.559Z,6.23
2023-04-24T09:55:30.332Z,8.90
2023-04-24T09:57:33.108Z,7.90
2023-04-24T09:59:37.484Z,6.47
2023-04-24T10:01:43.427Z,8.37
2023-04-24T10:03:46.441Z,10.17
2023-04-24T10:05:49.276Z,11.17
2023-04-24T10:07:55.177Z,7.37
2023-04-24T10:09:59.318Z,8.70
2023-04-24T10:12:03.050Z,8.87
2023-04-24T10:14:05.920Z,7.50
2023-04-24T10:16:08.741Z,6.43
2023-04-24T10:18:11.905Z,10.27
2023-04-24T10:20:15.102Z,3.93
2023-04-24T10:22:17.978Z,4.13
2023-04-24T10:24:21.444Z,4.83
2023-04-24T10:26:25.611Z,6.23
2023-04-24T10:28:28.411Z,10.63
2023-04-24T10:30:33.491Z,6.93
2023-04-24T10:32:36.284Z,6.18
2023-04-24T10:34:39.114Z,4.67
2023-04-24T10:36:47.339Z,3.50
2023-04-24T10:38:50.978Z,3.90
2023-04-24T10:40:53.776Z,4.80
2023-04-24T10:42:59.056Z,4.80
2023-04-24T10:45:03.128Z,2.90
2023-04-24T10:47:06.033Z,6.30
2023-04-24T10:49:09.845Z,2.90
2023-04-24T10:51:13.926Z,7.53
2023-04-24T10:53:18.223Z,3.90
2023-04-24T10:55:41.867Z,4.50
2023-04-24T10:58:06.712Z,3.70
2023-04-24T11:00:16.867Z,3.40
2023-04-24T11:02:19.996Z,4.30
2023-04-24T11:04:31.702Z,3.90
2023-04-24T11:06:36.005Z,5.67
2023-04-24T11:08:40.066Z,4.40
2023-04-24T11:10:43.529Z,3.07
2023-04-24T11:12:46.354Z,4.23
2023-04-24T11:15:04.153Z,4.00
2023-04-24T11:17:08.305Z,4.03
2023-04-24T11:19:12.165Z,4.70
2023-04-24T11:21:15.037Z,4.03
2023-04-24T11:23:18.670Z,4.23
2023-04-24T11:25:23.411Z,3.10
2023-04-24T11:27:26.192Z,10.00
2023-04-24T11:29:44.812Z,2.63
2023-04-24T11:31:51.025Z,4.37
2023-04-24T11:33:54.839Z,2.13
2023-04-24T11:35:57.615Z,3.13
2023-04-24T11:38:19.451Z,2.60
2023-04-24T11:40:26.820Z,2.27
2023-04-24T11:42:29.919Z,2.23
2023-04-24T11:44:32.857Z,2.87
2023-04-24T11:46:35.801Z,2.30
2023-04-24T11:48:41.272Z,5.77
2023-04-24T11:50:48.465Z,2.77
2023-04-24T11:52:51.866Z,4.43
2023-04-24T11:54:54.649Z,5.73
2023-04-24T11:56:58.040Z,2.17
2023-04-24T11:59:00.834Z,2.17
2023-04-24T12:01:03.698Z,1.93
2023-04-24T12:03:08.390Z,2.87
2023-04-24T12:05:21.276Z,2.43
2023-04-24T12:07:24.669Z,3.10
2023-04-24T12:09:27.472Z,1.80
2023-04-24T12:11:30.266Z,1.73
2023-04-24T12:13:33.263Z,2.30
2023-04-24T12:15:36.102Z,2.20
2023-04-24T12:17:38.894Z,2.10
2023-04-24T12:19:47.313Z,3.57
2023-04-24T12:22:02.517Z,1.40
2023-04-24T12:24:08.502Z,2.17
2023-04-24T12:26:11.274Z,2.13
2023-04-24T12:28:14.430Z,2.50
2023-04-24T12:30:18.158Z,2.00
2023-04-24T12:32:20.954Z,2.00
2023-04-24T12:34:24.847Z,4.60
2023-04-24T12:36:27.683Z,4.60
2023-04-24T12:38:31.922Z,3.90
2023-04-24T12:40:34.954Z,2.50
2023-04-24T12:42:38.398Z,3.80
2023-04-24T12:44:41.267Z,3.07
2023-04-24T12:46:44.051Z,2.83
2023-04-24T12:48:46.924Z,3.67
2023-04-24T12:50:49.898Z,3.60
2023-04-24T12:52:52.697Z,3.60
2023-04-24T12:54:58.641Z,3.93
2023-04-24T12:57:01.699Z,3.57
2023-04-24T12:59:04.472Z,4.97
2023-04-24T13:01:07.403Z,3.37
2023-04-24T13:03:10.825Z,4.63
2023-04-24T13:05:14.817Z,4.20
2023-04-24T13:07:17.632Z,3.00
2023-04-24T13:09:20.425Z,5.10
2023-04-24T13:11:24.658Z,5.60
2023-04-24T13:13:27.552Z,4.45
2023-04-24T13:15:30.580Z,4.47
2023-04-24T13:17:34.089Z,6.63
2023-04-24T13:19:39.875Z,3.43
2023-04-24T13:21:42.659Z,2.53
2023-04-24T13:23:45.624Z,4.60
2023-04-24T13:25:48.437Z,4.50
2023-04-24T13:27:52.668Z,2.90
2023-04-24T13:29:55.527Z,2.30
2023-04-24T13:31:58.397Z,2.30
2023-04-24T13:34:01.225Z,1.90
2023-04-24T13:36:04.087Z,2.73
2023-04-24T13:38:07.594Z,6.07
2023-04-24T13:40:11.646Z,4.23
2023-04-24T13:42:14.446Z,3.80
2023-04-24T13:44:18.882Z,2.53
2023-04-24T13:46:21.940Z,4.03
2023-04-24T13:48:24.768Z,1.77
2023-04-24T13:50:27.556Z,3.67
2023-04-24T13:52:30.313Z,2.10
2023-04-24T13:54:33.806Z,1.70
2023-04-24T13:56:36.650Z,3.13
2023-04-24T13:58:39.483Z,13.27
2023-04-24T14:00:43.599Z,6.53
2023-04-24T14:02:46.468Z,2.63
2023-04-24T14:04:50.005Z,4.37
2023-04-24T14:06:52.952Z,3.90
2023-04-24T14:08:55.720Z,5.57
2023-04-24T14:10:59.066Z,4.50
2023-04-24T14:13:01.839Z,7.37
2023-04-24T14:15:05.798Z,8.63
2023-04-24T14:17:10.252Z,9.83
2023-04-24T14:19:13.034Z,4.77
2023-04-24T14:21:15.814Z,6.27
2023-04-24T14:23:18.779Z,3.53
2023-04-24T14:25:23.154Z,3.23
2023-04-24T14:27:26.776Z,4.70
2023-04-24T14:29:29.598Z,8.73
2023-04-24T14:31:32.449Z,5.90
2023-04-24T14:33:36.628Z,6.50
2023-04-24T14:35:39.421Z,8.93
2023-04-24T14:37:43.656Z,10.80
2023-04-24T14:39:55.777Z,9.03
2023-04-24T14:42:03.727Z,11.07
2023-04-24T14:44:06.789Z,6.20
2023-04-24T14:46:09.628Z,19.50
2023-04-24T14:48:12.455Z,8.83
2023-04-24T14:50:16.632Z,10.40
2023-04-24T14:52:19.504Z,7.30
2023-04-24T14:54:24.177Z,7.80
2023-04-24T14:56:27.009Z,8.07
2023-04-24T14:58:29.802Z,4.70
2023-04-24T15:00:32.658Z,6.50
2023-04-24T15:02:35.670Z,23.40
2023-04-24T15:04:39.033Z,7.57
2023-04-24T15:06:43.374Z,13.23
2023-04-24T15:08:48.004Z,8.00
2023-04-24T15:10:52.308Z,7.00
2023-04-24T15:12:55.237Z,11.75
2023-04-24T15:14:59.319Z,10.70
2023-04-24T15:17:02.105Z,8.23
2023-04-24T15:19:04.876Z,12.03
2023-04-24T15:21:07.737Z,13.70
2023-04-24T15:23:11.919Z,11.27
2023-04-24T15:25:14.711Z,9.30
2023-04-24T15:27:17.513Z,11.23
2023-04-24T15:29:20.802Z,12.30
2023-04-24T15:31:24.023Z,13.33
2023-04-24T15:33:27.511Z,10.63
2023-04-24T15:35:30.390Z,13.27
2023-04-24T15:37:33.223Z,11.13
2023-04-24T15:39:37.342Z,12.70
2023-04-24T15:41:40.105Z,12.60
2023-04-24T15:43:43.938Z,9.40
2023-04-24T15:45:46.728Z,12.70
2023-04-24T15:47:49.615Z,12.97
2023-04-24T15:49:52.469Z,11.43
2023-04-24T15:51:55.246Z,10.37
2023-04-24T15:53:58.026Z,6.87
2023-04-24T15:56:02.156Z,10.40
2023-04-24T15:58:05.275Z,13.10
2023-04-24T16:00:09.758Z,11.40
2023-04-24T16:02:18.771Z,12.90
2023-04-24T16:04:21.834Z,14.63
2023-04-24T16:06:24.776Z,18.17
2023-04-24T16:08:27.550Z,20.07
2023-04-24T16:10:30.464Z,10.23
2023-04-24T16:12:34.676Z,9.70
2023-04-24T16:14:37.580Z,15.53
2023-04-24T16:16:40.347Z,11.47
2023-04-24T16:18:43.106Z,15.47
2023-04-24T16:20:46.112Z,13.43
2023-04-24T16:22:48.886Z,6.83
2023-04-24T16:24:51.885Z,7.50
2023-04-24T16:26:54.656Z,13.83
2023-04-24T16:28:58.751Z,11.57
2023-04-24T16:31:01.581Z,10.87
2023-04-24T16:33:07.393Z,9.53
2023-04-24T16:35:10.524Z,8.07
2023-04-24T16:37:13.312Z,14.93
2023-04-24T16:39:16.109Z,8.07
2023-04-24T16:41:18.971Z,5.07
2023-04-24T16:43:21.730Z,7.87
2023-04-24T16:45:25.861Z,9.23
2023-04-24T16:47:28.673Z,6.40
2023-04-24T16:49:32.717Z,6.17
2023-04-24T16:51:36.070Z,8.43
2023-04-24T16:53:38.832Z,6.03
2023-04-24T16:55:41.625Z,9.00
2023-04-24T16:57:44.405Z,10.70
2023-04-24T16:59:47.189Z,7.47
2023-04-24T17:01:51.419Z,3.43
2023-04-24T17:03:54.342Z,5.80
2023-04-24T17:05:57.406Z,7.43
2023-04-24T17:08:00.246Z,3.47
2023-04-24T17:10:03.152Z,7.53
2023-04-24T17:12:07.454Z,9.43
2023-04-24T17:14:10.254Z,5.83
2023-04-24T17:16:13.123Z,6.40
2023-04-24T17:18:17.745Z,3.63
2023-04-24T17:20:22.833Z,5.10
2023-04-24T17:22:26.712Z,5.63
2023-04-24T17:24:29.507Z,4.43
2023-04-24T17:26:32.389Z,9.97
2023-04-24T17:28:35.281Z,4.97
2023-04-24T17:30:38.056Z,3.90
2023-04-24T17:32:40.844Z,9.13
2023-04-24T17:34:44.988Z,14.07
2023-04-24T17:36:47.751Z,8.13
2023-04-24T17:38:50.755Z,8.17
2023-04-24T17:40:53.818Z,4.63
2023-04-24T17:42:56.577Z,8.43
2023-04-24T17:44:59.385Z,7.23
2023-04-24T17:47:02.172Z,8.93
2023-04-24T17:49:04.979Z,7.63
2023-04-24T17:51:09.221Z,8.43
2023-04-24T17:53:12.001Z,6.60
2023-04-24T17:55:16.084Z,7.80
2023-04-24T17:57:18.862Z,10.53
2023-04-24T17:59:22.253Z,25.80
2023-04-24T18:01:25.119Z,7.50
2023-04-24T18:03:28.071Z,13.03
2023-04-24T18:05:31.200Z,7.83
2023-04-24T18:07:35.326Z,7.63
2023-04-24T18:09:38.110Z,6.20
2023-04-24T18:11:40.883Z,7.03
2023-04-24T18:13:43.924Z,4.60
2023-04-24T18:15:46.809Z,5.87
2023-04-24T18:17:49.637Z,8.60
2023-04-24T18:19:52.530Z,13.80
2023-04-24T18:21:55.301Z,6.60
2023-04-24T18:24:00.385Z,3.90
2023-04-24T18:26:03.398Z,8.00
2023-04-24T18:28:06.162Z,4.30
2023-04-24T18:30:14.130Z,6.33
2023-04-24T18:32:17.929Z,10.40
2023-04-24T18:34:20.723Z,4.10
2023-04-24T18:36:23.487Z,13.27
2023-04-24T18:38:26.929Z,3.77
2023-04-24T18:40:31.087Z,10.30
2023-04-24T18:42:33.846Z,7.10
2023-04-24T18:44:38.831Z,7.77
2023-04-24T18:46:41.743Z,10.30
2023-04-24T18:48:44.565Z,9.80
2023-04-24T18:50:47.336Z,7.07
2023-04-24T18:52:50.105Z,6.40
2023-04-24T18:54:52.914Z,13.90
2023-04-24T18:56:57.448Z,14.23
2023-04-24T18:59:00.327Z,9.03
2023-04-24T19:01:04.073Z,11.80
2023-04-24T19:03:08.744Z,6.20
2023-04-24T19:05:12.075Z,7.33
2023-04-24T19:07:14.855Z,12.33
2023-04-24T19:09:17.680Z,21.53
2023-04-24T19:11:20.484Z,8.93
2023-04-24T19:13:24.949Z,10.20
2023-04-24T19:15:29.666Z,6.30
2023-04-24T19:17:32.460Z,5.73
2023-04-24T19:19:35.287Z,10.83
2023-04-24T19:21:38.053Z,9.70
2023-04-24T19:23:41.349Z,19.63
2023-04-24T19:25:44.129Z,8.23
2023-04-24T19:27:46.897Z,9.20
2023-04-24T19:29:52.003Z,6.97
2023-04-24T19:31:55.566Z,5.27
2023-04-24T19:33:58.363Z,6.63
2023-04-24T19:36:01.278Z,6.90
2023-04-24T19:38:04.043Z,9.30
2023-04-24T19:40:08.364Z,8.30
2023-04-24T19:42:11.154Z,10.47
2023-04-24T19:44:14.654Z,8.00
2023-04-24T19:46:18.914Z,10.17
2023-04-24T19:48:21.815Z,8.27
2023-04-24T19:50:24.833Z,6.70
2023-04-24T19:52:27.794Z,5.30
2023-04-24T19:54:30.583Z,8.93
2023-04-24T19:56:33.509Z,7.33
2023-04-24T19:58:36.613Z,7.33
2023-04-24T20:00:41.205Z,5.33
2023-04-24T20:02:45.495Z,7.93
2023-04-24T20:04:48.668Z,9.87
2023-04-24T20:06:51.712Z,10.80
2023-04-24T20:08:54.486Z,11.10
2023-04-24T20:10:58.473Z,9.07
2023-04-24T20:13:01.362Z,14.23
2023-04-24T20:15:04.310Z,8.90
2023-04-24T20:17:07.120Z,10.77
2023-04-24T20:19:11.255Z,11.87
2023-04-24T20:21:14.009Z,12.60
2023-04-24T20:23:16.825Z,13.50
2023-04-24T20:25:19.613Z,7.07
2023-04-24T20:27:22.391Z,15.00
2023-04-24T20:29:26.233Z,15.73
2023-04-24T20:31:29.049Z,7.47
2023-04-24T20:33:32.324Z,10.13
2023-04-24T20:35:36.463Z,12.43
2023-04-24T20:37:39.931Z,12.33
2023-04-24T20:39:44.502Z,8.63
2023-04-24T20:41:47.547Z,11.70
2023-04-24T20:43:50.334Z,4.03
2023-04-24T20:45:53.149Z,16.63
2023-04-24T20:47:56.026Z,14.93
2023-04-24T20:49:58.968Z,12.50
2023-04-24T20:52:03.121Z,9.43
2023-04-24T20:54:06.016Z,9.70
2023-04-24T20:56:11.357Z,15.03
2023-04-24T20:58:14.200Z,9.30
2023-04-24T21:00:17.501Z,13.83
2023-04-24T21:02:20.388Z,6.50
2023-04-24T21:04:23.227Z,10.20
2023-04-24T21:06:26.042Z,11.77
2023-04-24T21:08:30.172Z,7.30
2023-04-24T21:10:33.001Z,20.30
2023-04-24T21:12:35.783Z,5.40
2023-04-24T21:14:38.556Z,9.83
2023-04-24T21:16:41.388Z,10.63
2023-04-24T21:18:44.323Z,12.07
2023-04-24T21:20:47.130Z,9.60
2023-04-24T21:22:49.909Z,11.10
2023-04-24T21:24:54.018Z,10.47
2023-04-24T21:26:56.805Z,6.53
2023-04-24T21:28:59.591Z,10.97
2023-04-24T21:31:02.536Z,9.37
2023-04-24T21:33:05.401Z,14.67
2023-04-24T21:35:09.175Z,13.50
2023-04-24T21:37:12.168Z,12.13
2023-04-24T21:39:14.939Z,17.67
2023-04-24T21:41:19.052Z,14.03
2023-04-24T21:43:27.695Z,9.23
2023-04-24T21:45:36.602Z,15.00
2023-04-24T21:47:39.386Z,14.23
2023-04-24T21:49:42.474Z,8.77
2023-04-24T21:51:45.602Z,23.83
2023-04-24T21:53:48.630Z,17.10
2023-04-24T21:55:51.938Z,10.10
2023-04-24T21:57:56.071Z,12.60
2023-04-24T21:59:58.835Z,17.40
2023-04-24T22:02:01.640Z,10.47
2023-04-24T22:04:04.731Z,14.80
2023-04-24T22:06:07.830Z,9.37
2023-04-24T22:08:10.754Z,13.90
2023-04-24T22:10:14.054Z,12.27
2023-04-24T22:12:17.150Z,16.97
2023-04-24T22:14:21.257Z,10.40
2023-04-24T22:16:24.745Z,11.80
2023-04-24T22:18:40.066Z,8.50
2023-04-24T22:20:49.112Z,11.70
2023-04-24T22:22:52.435Z,15.93
2023-04-24T22:24:55.668Z,14.93
2023-04-24T22:26:58.452Z,26.00
2023-04-24T22:29:01.306Z,13.77
2023-04-24T22:31:05.516Z,11.03
2023-04-24T22:33:08.476Z,18.47
2023-04-24T22:35:11.433Z,12.40
2023-04-24T22:37:14.197Z,14.30
2023-04-24T22:39:17.602Z,15.20
2023-04-24T22:41:20.455Z,17.80
2023-04-24T22:43:23.211Z,16.07
2023-04-24T22:45:26.123Z,21.33
2023-04-24T22:47:30.624Z,13.20
2023-04-24T22:49:34.877Z,9.83
2023-04-24T22:51:37.661Z,15.63
2023-04-24T22:53:40.488Z,12.97
2023-04-24T22:55:43.280Z,13.00
2023-04-24T22:57:46.040Z,15.70
2023-04-24T22:59:48.838Z,14.97
2023-04-24T23:01:51.844Z,20.40
2023-04-24T23:03:56.071Z,15.20
2023-04-24T23:05:58.948Z,15.20
2023-04-24T23:08:01.712Z,13.13
2023-04-24T23:10:04.775Z,14.23
2023-04-24T23:12:07.634Z,11.20
2023-04-24T23:14:10.450Z,23.10
2023-04-24T23:16:13.303Z,13.37
2023-04-24T23:18:16.146Z,26.33
2023-04-24T23:20:20.547Z,16.87
2023-04-24T23:22:23.326Z,17.37
2023-04-24T23:24:26.713Z,27.30
2023-04-24T23:26:29.499Z,11.80
2023-04-24T23:28:32.871Z,19.17
2023-04-24T23:30:35.625Z,14.77
2023-04-24T23:32:38.419Z,11.90
2023-04-24T23:34:41.470Z,18.60
2023-04-24T23:36:45.645Z,14.10
2023-04-24T23:38:50.684Z,27.63
2023-04-24T23:40:53.798Z,20.97
2023-04-24T23:43:06.362Z,16.40
2023-04-24T23:45:11.556Z,17.43
2023-04-24T23:47:14.348Z,14.73
2023-04-24T23:49:17.107Z,21.13
2023-04-24T23:51:19.885Z,8.47
2023-04-24T23:53:24.048Z,15.23
2023-04-24T23:55:26.856Z,11.40
2023-04-24T23:57:29.630Z,20.93
2023-04-24T23:59:32.396Z,15.80
